Time;durP1;ratioP1;P1;durP2;ratioP2;P2;SDS_P1;SDS_P2;PMS_P1;PMS_P2;Temp;Humidity;BMP_temperature;BMP_pressure;BME280_temperature;BME280_humidity;BME280_pressure;Samples;Min_cycle;Max_cycle;Signal;HPM_P1;HPM_P2
2023/10/24 00:01:34;;;;;;;;;11.67;10.67;;;;;12.92;82.13;100060.81;5019611;28;45455;-65
2023/10/24 00:04:00;;;;;;;;;13.50;10.50;;;;;12.86;82.65;100045.19;5020569;28;45461;-65
2023/10/24 00:06:25;;;;;;;;;16.33;12.33;;;;;12.91;82.45;100056.47;5024444;28;45475;-66
2023/10/24 00:08:51;;;;;;;;;12.00;9.67;;;;;12.86;82.14;100037.28;5022656;28;45751;-65
2023/10/24 00:11:17;;;;;;;;;12.00;11.33;;;;;12.71;82.53;100012.13;5026717;28;45535;-66
2023/10/24 00:13:43;;;;;;;;;15.67;10.67;;;;;12.75;82.68;100017.34;5042083;28;45365;-65
2023/10/24 00:16:08;;;;;;;;;15.00;13.00;;;;;12.75;82.34;100018.22;5034125;28;45366;-65
2023/10/24 00:18:34;;;;;;;;;12.00;10.33;;;;;12.78;83.18;100025.19;5032999;28;46011;-66
2023/10/24 00:21:00;;;;;;;;;12.67;11.33;;;;;12.79;83.16;100035.66;5034085;28;45515;-66
2023/10/24 00:23:29;;;;;;;;;14.67;11.33;;;;;12.85;82.95;100035.53;5036602;28;45488;-66
2023/10/24 00:25:54;;;;;;;;;18.00;12.33;;;;;12.76;83.43;100034.84;5031634;28;45634;-66
2023/10/24 00:28:20;;;;;;;;;17.33;14.00;;;;;12.83;83.28;100037.31;5036668;28;45415;-66
2023/10/24 00:30:45;;;;;;;;;14.00;8.00;;;;;12.83;83.08;100032.06;5021521;28;45499;-67
2023/10/24 00:33:12;;;;;;;;;13.00;11.50;;;;;12.72;83.80;100026.16;5017071;28;45555;-65
2023/10/24 00:35:37;;;;;;;;;16.67;12.33;;;;;12.80;83.75;100042.66;5047761;28;45815;-65
2023/10/24 00:38:03;;;;;;;;;14.33;11.67;;;;;12.79;83.42;100029.53;5017151;28;46051;-64
2023/10/24 00:40:28;;;;;;;;;18.50;16.75;;;;;12.80;83.44;100024.25;5032112;28;45761;-65
2023/10/24 00:42:54;;;;;;;;;21.00;15.00;;;;;12.88;83.59;100031.97;5038039;28;45444;-67
2023/10/24 00:45:19;;;;;;;;;18.67;14.00;;;;;12.90;83.44;100041.56;5037835;28;45407;-65
2023/10/24 00:47:45;;;;;;;;;16.50;12.75;;;;;12.85;83.74;100040.78;5038344;28;46110;-65
2023/10/24 00:50:13;;;;;;;;;17.75;14.25;;;;;12.77;83.99;100018.19;5039252;28;45514;-65
2023/10/24 00:52:39;;;;;;;;;24.67;17.67;;;;;12.85;84.42;100032.06;5034686;28;45444;-66
2023/10/24 00:55:07;;;;;;;;;17.50;15.50;;;;;12.83;84.61;100025.94;5026737;28;45407;-65
2023/10/24 00:57:33;;;;;;;;;16.75;16.25;;;;;12.81;84.58;100025.09;5036513;28;45567;-66
2023/10/24 01:00:00;;;;;;;;;14.50;13.75;;;;;12.77;84.60;100023.47;5038409;28;45493;-66
2023/10/24 01:02:26;;;;;;;;;15.33;15.00;;;;;12.70;84.88;100018.31;5037142;28;45323;-64
2023/10/24 01:04:54;;;;;;;;;14.25;14.25;;;;;12.78;85.26;100025.19;5035881;28;45640;-64
2023/10/24 01:07:20;;;;;;;;;18.00;15.00;;;;;12.69;85.52;100011.31;5037307;28;46208;-65
2023/10/24 01:09:45;;;;;;;;;16.00;14.25;;;;;12.75;84.79;100001.59;5052644;28;45363;-66
2023/10/24 01:12:11;;;;;;;;;15.33;12.67;;;;;12.77;85.17;100003.28;5037439;28;45499;-66
2023/10/24 01:14:36;;;;;;;;;13.75;13.75;;;;;12.83;84.93;100007.56;5038639;28;45334;-66
2023/10/24 01:17:12;;;;;;;;;16.75;13.75;;;;;12.78;84.95;99993.66;5037333;28;45839;-65
2023/10/24 01:19:37;;;;;;;;;15.33;12.67;;;;;12.81;84.55;99996.19;5035625;28;45486;-65
2023/10/24 01:22:03;;;;;;;;;19.00;14.75;;;;;12.76;84.74;100008.56;5037716;28;45559;-65
2023/10/24 01:24:29;;;;;;;;;17.75;14.50;;;;;12.87;85.09;100017.13;5038913;28;45432;-66
2023/10/24 01:27:03;;;;;;;;;15.00;12.00;;;;;12.70;85.43;99994.66;5034093;28;45976;-66
2023/10/24 01:29:29;;;;;;;;;17.67;14.67;;;;;12.75;85.45;100001.59;5040462;28;45411;-66
2023/10/24 01:32:01;;;;;;;;;20.50;17.00;;;;;12.71;85.32;100009.50;5035564;28;45373;-65
2023/10/24 01:34:27;;;;;;;;;15.75;15.00;;;;;12.67;85.68;100005.22;5037405;28;45981;-67
2023/10/24 01:36:53;;;;;;;;;17.00;12.33;;;;;12.34;85.58;99950.66;5038412;28;46270;-66
2023/10/24 01:39:18;;;;;;;;;16.67;13.33;;;;;12.75;85.33;100020.00;5038767;28;45508;-66
2023/10/24 01:41:45;;;;;;;;;13.67;12.33;;;;;12.93;85.33;100019.63;5040176;28;45292;-66
2023/10/24 01:44:10;;;;;;;;;13.67;13.33;;;;;12.19;85.37;99907.16;5039328;28;45464;-65
2023/10/24 01:46:36;;;;;;;;;18.00;12.33;;;;;12.04;85.86;99861.06;5038438;28;46172;-66
2023/10/24 01:49:01;;;;;;;;;15.67;14.00;;;;;12.50;85.83;99949.47;5036475;28;45509;-65
2023/10/24 01:51:28;;;;;;;;;14.67;13.67;;;;;12.96;85.66;100011.69;5037180;28;45754;-65
2023/10/24 01:53:54;;;;;;;;;17.33;14.67;;;;;12.76;85.31;99964.75;5036917;28;45519;-64
2023/10/24 01:56:19;;;;;;;;;15.00;12.33;;;;;13.02;85.66;100013.31;5036258;28;45457;-64
2023/10/24 01:58:45;;;;;;;;;16.50;15.00;;;;;13.00;86.01;100010.72;5037388;28;45292;-66
2023/10/24 02:01:11;;;;;;;;;11.33;10.33;;;;;12.92;85.54;99991.63;5038724;28;45528;-65
2023/10/24 02:03:37;;;;;;;;;16.67;16.00;;;;;12.79;85.97;99971.72;5039191;28;45461;-64
2023/10/24 02:06:03;;;;;;;;;17.67;13.67;;;;;12.88;86.32;99982.94;5036371;28;45487;-64
2023/10/24 02:08:28;;;;;;;;;15.00;13.00;;;;;12.95;86.42;99988.91;5048964;28;45566;-65
2023/10/24 02:10:55;;;;;;;;;16.25;14.75;;;;;13.04;86.22;99996.63;5032949;28;45534;-65
2023/10/24 02:13:21;;;;;;;;;15.33;11.67;;;;;13.04;86.20;99978.22;5036683;28;45465;-65
2023/10/24 02:15:46;;;;;;;;;15.33;13.67;;;;;12.42;85.82;99872.63;5035854;28;46630;-65
2023/10/24 02:18:12;;;;;;;;;15.00;14.33;;;;;13.04;86.20;99972.09;5036571;28;45345;-65
2023/10/24 02:20:38;;;;;;;;;11.67;11.33;;;;;13.06;85.79;99979.06;5036977;28;45524;-66
2023/10/24 02:23:04;;;;;;;;;17.67;10.67;;;;;13.05;85.66;99961.56;5036461;28;45456;-65
2023/10/24 02:25:35;;;;;;;;;11.67;11.00;;;;;13.04;85.72;99954.56;5036825;28;45432;-65
2023/10/24 02:28:00;;;;;;;;;17.00;15.67;;;;;13.06;85.21;99955.41;5036804;28;45486;-65
2023/10/24 02:30:26;;;;;;;;;16.33;13.67;;;;;13.08;85.62;99956.25;5036006;28;45394;-64
2023/10/24 02:32:52;;;;;;;;;13.67;11.67;;;;;13.22;85.35;99986.66;5036641;28;45479;-64
2023/10/24 02:35:23;;;;;;;;;18.00;16.00;;;;;13.09;85.76;99957.97;5037147;28;45890;-65
2023/10/24 02:37:48;;;;;;;;;16.67;13.00;;;;;13.28;85.77;99987.41;5035993;28;45599;-65
2023/10/24 02:40:15;;;;;;;;;16.00;16.00;;;;;13.30;85.00;99980.34;5035963;28;45322;-65
2023/10/24 02:42:40;;;;;;;;;17.00;14.67;;;;;13.26;85.32;99977.78;5036988;28;46051;-65
2023/10/24 02:45:07;;;;;;;;;16.00;12.00;;;;;13.26;85.19;99975.16;5037257;28;45459;-65
2023/10/24 02:47:32;;;;;;;;;12.33;11.00;;;;;13.34;85.13;99976.75;5036305;28;45428;-65
2023/10/24 02:49:58;;;;;;;;;12.33;12.33;;;;;13.37;84.81;99981.09;5036214;28;45452;-64
2023/10/24 02:52:27;;;;;;;;;12.67;12.00;;;;;13.32;84.95;99975.91;5017109;28;45422;-64
2023/10/24 02:54:53;;;;;;;;;13.00;11.00;;;;;13.25;84.50;99961.16;5026230;28;46697;-64
2023/10/24 02:57:19;;;;;;;;;11.33;10.00;;;;;13.24;84.73;99953.28;5025106;28;45441;-64
2023/10/24 02:59:45;;;;;;;;;12.67;11.67;;;;;13.34;84.73;99966.25;5016228;28;45548;-64
2023/10/24 03:02:13;;;;;;;;;10.67;8.67;;;;;13.16;84.40;99914.00;5031021;28;45544;-64
2023/10/24 03:04:38;;;;;;;;;12.33;8.67;;;;;13.35;84.15;99940.81;5036814;28;45550;-65
2023/10/24 03:07:04;;;;;;;;;10.00;10.00;;;;;13.18;84.10;99924.50;5035667;28;45448;-65
2023/10/24 03:09:29;;;;;;;;;12.00;12.00;;;;;13.55;84.26;99969.31;5036094;28;45351;-65
2023/10/24 03:11:55;;;;;;;;;13.00;11.00;;;;;13.57;84.18;99970.13;5036913;28;45410;-65
2023/10/24 03:14:21;;;;;;;;;10.00;10.00;;;;;13.60;83.83;99966.56;5035290;28;46241;-65
2023/10/24 03:16:48;;;;;;;;;12.00;7.67;;;;;13.62;83.69;99965.63;5036004;28;45680;-64
2023/10/24 03:19:14;;;;;;;;;13.67;11.00;;;;;13.53;83.99;99956.19;5035942;28;45402;-65
2023/10/24 03:21:39;;;;;;;;;37.75;32.75;;;;;13.43;84.53;99933.63;5039673;28;45484;-65
2023/10/24 03:24:06;;;;;;;;;27.25;25.00;;;;;13.68;83.86;99969.88;5054001;28;47003;-65
2023/10/24 03:26:32;;;;;;;;;17.33;17.00;;;;;13.67;83.35;99957.66;5039113;28;45495;-66
2023/10/24 03:28:58;;;;;;;;;17.00;16.33;;;;;13.26;83.14;99897.13;5038715;28;45366;-65
2023/10/24 03:31:23;;;;;;;;;11.67;10.33;;;;;13.67;83.28;99955.88;5041078;28;45372;-66
2023/10/24 03:33:52;;;;;;;;;12.67;12.00;;;;;13.47;83.50;99932.63;5040827;28;45615;-64
2023/10/24 03:36:19;;;;;;;;;11.33;9.67;;;;;13.70;83.13;99968.94;5040395;28;45427;-64
2023/10/24 03:38:45;;;;;;;;;12.33;11.33;;;;;13.69;84.84;99971.59;5052834;28;45367;-64
2023/10/24 03:41:10;;;;;;;;;16.67;11.67;;;;;13.76;83.85;99975.81;5038555;28;45539;-67
2023/10/24 03:43:38;;;;;;;;;9.67;7.33;;;;;13.75;84.03;99982.84;5039792;28;45545;-67
2023/10/24 03:46:06;;;;;;;;;11.33;10.00;;;;;13.59;83.85;99952.53;5040202;28;45362;-66
2023/10/24 03:48:32;;;;;;;;;10.00;8.33;;;;;13.55;83.82;99945.63;5040244;28;45594;-67
2023/10/24 03:51:00;;;;;;;;;12.00;10.67;;;;;13.65;83.82;99962.94;5039432;28;45318;-66
2023/10/24 03:53:26;;;;;;;;;11.33;9.00;;;;;13.43;83.91;99928.34;5033848;28;47010;-66
2023/10/24 03:55:57;;;;;;;;;9.33;9.00;;;;;13.70;83.46;99965.47;5031403;28;45456;-68
2023/10/24 03:58:27;;;;;;;;;12.33;8.67;;;;;13.75;83.54;99969.69;5037064;28;45549;-68
2023/10/24 04:00:54;;;;;;;;;8.00;7.33;;;;;13.69;83.51;99963.72;5038950;28;45477;-67
2023/10/24 04:03:20;;;;;;;;;8.33;8.33;;;;;13.78;83.88;99974.03;5038506;28;46172;-67
2023/10/24 04:05:46;;;;;;;;;8.33;8.00;;;;;13.67;83.32;99957.66;5050414;28;45464;-66
2023/10/24 04:08:12;;;;;;;;;8.33;8.33;;;;;13.54;83.40;99934.22;5053055;28;45499;-68
2023/10/24 04:10:37;;;;;;;;;8.33;7.33;;;;;13.70;83.52;99971.56;5037175;28;45522;-66
2023/10/24 04:13:03;;;;;;;;;6.67;6.67;;;;;13.78;83.70;99979.28;5038167;28;45350;-65
2023/10/24 04:15:29;;;;;;;;;10.33;8.33;;;;;13.43;83.94;99917.84;5036943;28;45391;-65
2023/10/24 04:17:54;;;;;;;;;7.33;5.67;;;;;13.71;83.62;99961.91;5037230;28;45513;-65
2023/10/24 04:20:20;;;;;;;;;9.00;5.67;;;;;13.77;83.79;99967.03;5038215;28;45383;-65
2023/10/24 04:22:49;;;;;;;;;8.33;6.67;;;;;13.54;83.83;99931.59;5038706;28;46429;-64
2023/10/24 04:25:15;;;;;;;;;7.00;7.00;;;;;13.79;83.99;99975.78;5049797;28;45276;-65
2023/10/24 04:27:41;;;;;;;;;5.67;5.67;;;;;13.30;84.46;99908.47;5033077;28;45491;-65
2023/10/24 04:30:07;;;;;;;;;8.33;6.00;;;;;13.70;84.25;99968.09;5038016;28;45588;-65
2023/10/24 04:32:33;;;;;;;;;7.33;6.00;;;;;13.68;84.04;99967.25;5036981;28;46324;-65
2023/10/24 04:35:02;;;;;;;;;5.67;5.67;;;;;13.65;84.33;99976.09;5038794;28;45373;-64
2023/10/24 04:37:28;;;;;;;;;5.67;5.67;;;;;13.66;84.05;99971.69;5039569;28;45366;-64
2023/10/24 04:39:54;;;;;;;;;8.00;6.67;;;;;13.50;84.41;99945.72;5036921;28;45397;-65
2023/10/24 04:42:21;;;;;;;;;7.67;6.00;;;;;13.71;84.18;99982.97;5038164;28;45512;-64
2023/10/24 04:44:46;;;;;;;;;8.00;8.00;;;;;13.16;84.11;99885.94;5037574;28;45706;-64
2023/10/24 04:47:12;;;;;;;;;6.33;5.00;;;;;13.34;84.44;99912.78;5039006;28;45592;-63
2023/10/24 04:49:38;;;;;;;;;7.33;5.33;;;;;13.25;85.13;99918.22;5036715;28;45559;-66
2023/10/24 04:52:04;;;;;;;;;8.67;5.67;;;;;13.39;84.75;99946.88;5037619;28;46386;-66
2023/10/24 04:54:29;;;;;;;;;4.33;4.33;;;;;13.62;85.07;99975.28;5038007;28;45539;-65
2023/10/24 04:56:55;;;;;;;;;4.67;4.67;;;;;13.65;84.78;99977.84;5037467;28;45534;-66
2023/10/24 04:59:20;;;;;;;;;5.33;4.67;;;;;13.64;84.47;99969.06;5036415;28;45727;-65
2023/10/24 05:01:47;;;;;;;;;4.67;4.67;;;;;13.67;84.43;99963.75;5037600;28;45937;-65
2023/10/24 05:04:16;;;;;;;;;6.33;6.33;;;;;13.62;85.36;99963.00;5038529;28;45353;-64
2023/10/24 05:06:43;;;;;;;;;7.33;4.67;;;;;13.66;84.65;99975.16;5037919;28;45221;-65
2023/10/24 05:09:09;;;;;;;;;5.67;4.00;;;;;13.29;84.90;99904.13;5037846;28;45421;-65
2023/10/24 05:11:39;;;;;;;;;5.33;5.33;;;;;13.69;84.74;99974.22;5037301;28;46485;-65
2023/10/24 05:14:05;;;;;;;;;7.00;5.67;;;;;13.58;85.00;99954.31;5037187;28;45603;-65
2023/10/24 05:16:31;;;;;;;;;7.33;7.33;;;;;13.30;85.51;99908.47;5037439;28;45398;-65
2023/10/24 05:18:57;;;;;;;;;6.33;6.33;;;;;13.04;85.12;99880.97;5037677;28;45458;-67
2023/10/24 05:21:22;;;;;;;;;6.67;5.67;;;;;13.40;85.71;99936.28;5038128;28;46112;-67
2023/10/24 05:23:48;;;;;;;;;4.67;4.67;;;;;13.54;85.19;99957.91;5038729;28;45460;-68
2023/10/24 05:26:14;;;;;;;;;8.00;5.33;;;;;13.33;85.37;99916.28;5024752;28;45508;-66
2023/10/24 05:28:41;;;;;;;;;7.33;5.67;;;;;13.53;85.34;99964.06;5036081;28;45448;-67
2023/10/24 05:31:07;;;;;;;;;9.00;6.00;;;;;13.59;85.26;99968.31;5037282;28;46190;-68
2023/10/24 05:33:35;;;;;;;;;7.00;7.00;;;;;13.65;85.65;99969.97;5038637;28;45426;-67
2023/10/24 05:36:01;;;;;;;;;6.33;6.33;;;;;13.60;85.40;99950.78;5037327;28;45523;-66
2023/10/24 05:38:27;;;;;;;;;6.67;6.33;;;;;13.53;84.97;99936.91;5036789;28;45487;-66
2023/10/24 05:40:53;;;;;;;;;4.67;4.67;;;;;13.49;85.38;99936.09;5036622;28;45659;-67
2023/10/24 05:43:22;;;;;;;;;9.33;6.33;;;;;13.55;85.52;99949.13;5037357;28;45417;-67
2023/10/24 05:45:54;;;;;;;;;8.33;5.33;;;;;13.41;85.34;99911.75;5050131;28;45524;-65
2023/10/24 05:48:20;;;;;;;;;7.00;5.67;;;;;13.61;85.74;99936.72;5029850;28;45493;-66
2023/10/24 05:50:45;;;;;;;;;7.00;5.33;;;;;13.61;85.45;99939.34;5036619;28;46178;-67
2023/10/24 05:53:12;;;;;;;;;5.67;4.00;;;;;13.33;85.04;99896.09;5038172;28;45401;-66
2023/10/24 05:55:39;;;;;;;;;4.33;4.33;;;;;13.38;84.77;99900.41;5036799;28;45538;-64
2023/10/24 05:58:05;;;;;;;;;10.67;6.33;;;;;13.68;84.84;99967.25;5036865;28;45692;-64
2023/10/24 06:00:30;;;;;;;;;7.33;6.00;;;;;13.71;85.21;99964.53;5035020;28;45914;-65
2023/10/24 06:02:56;;;;;;;;;4.00;4.00;;;;;13.68;84.73;99956.72;5036770;28;45743;-65
2023/10/24 06:05:25;;;;;;;;;6.67;4.67;;;;;13.65;84.84;99935.75;5036529;28;45295;-65
2023/10/24 06:07:51;;;;;;;;;9.00;7.00;;;;;13.83;84.73;99966.88;5037331;28;45397;-64
2023/10/24 06:10:17;;;;;;;;;6.33;4.67;;;;;13.72;84.97;99954.00;5036384;28;46138;-65
2023/10/24 06:12:42;;;;;;;;;6.33;5.33;;;;;13.77;84.88;99969.69;5036302;28;45523;-64
2023/10/24 06:15:08;;;;;;;;;6.67;5.33;;;;;13.67;84.38;99947.97;5035954;28;45466;-65
2023/10/24 06:17:34;;;;;;;;;5.00;5.00;;;;;13.80;84.14;99966.97;5036795;28;45551;-64
2023/10/24 06:20:00;;;;;;;;;6.67;6.33;;;;;13.86;84.54;99979.13;5036370;28;45462;-65
2023/10/24 06:22:28;;;;;;;;;6.67;6.67;;;;;13.90;84.23;99988.66;5023482;28;45516;-65
2023/10/24 06:24:55;;;;;;;;;6.33;5.33;;;;;13.81;84.20;99967.81;5034163;28;45483;-65
2023/10/24 06:27:20;;;;;;;;;9.00;8.00;;;;;13.87;84.04;99975.59;5024577;28;45431;-66
2023/10/24 06:29:46;;;;;;;;;8.00;7.00;;;;;13.92;84.21;99982.47;5037503;28;46271;-64
2023/10/24 06:32:15;;;;;;;;;5.67;5.67;;;;;13.71;83.95;99951.38;5036048;28;45556;-64
2023/10/24 06:34:44;;;;;;;;;6.33;5.33;;;;;13.96;83.90;99989.38;5036628;28;45453;-63
2023/10/24 06:37:10;;;;;;;;;5.67;5.00;;;;;13.99;83.30;99996.34;5037191;28;45504;-65
2023/10/24 06:39:36;;;;;;;;;8.00;7.33;;;;;14.02;82.80;99998.91;5035804;28;46510;-65
2023/10/24 06:42:02;;;;;;;;;7.00;5.67;;;;;13.64;82.73;99945.38;5034485;28;45826;-66
2023/10/24 06:44:28;;;;;;;;;6.67;5.00;;;;;14.07;82.13;99990.88;5036449;28;45464;-64
2023/10/24 06:46:54;;;;;;;;;4.67;4.67;;;;;14.02;81.83;99988.38;5037480;28;45550;-65
2023/10/24 06:49:20;;;;;;;;;6.33;5.33;;;;;13.60;81.48;99919.22;5036404;28;45641;-65
2023/10/24 06:51:45;;;;;;;;;4.00;4.00;;;;;13.69;81.10;99935.66;5036057;28;45389;-65
2023/10/24 06:54:11;;;;;;;;;5.33;5.00;;;;;13.87;81.73;99965.91;5048449;28;45367;-65
2023/10/24 06:56:37;;;;;;;;;4.00;4.00;;;;;13.87;81.04;99968.56;5029836;28;45444;-63
2023/10/24 06:59:03;;;;;;;;;4.67;4.67;;;;;13.79;80.49;99978.41;5039423;28;46261;-64
2023/10/24 07:01:28;;;;;;;;;5.33;5.00;;;;;14.15;80.71;100024.03;5039202;28;45373;-64
2023/10/24 07:03:55;;;;;;;;;6.00;5.67;;;;;13.97;80.37;99990.25;5039519;28;45452;-65
2023/10/24 07:06:21;;;;;;;;;7.33;6.00;;;;;14.19;80.19;100027.50;5052184;28;45486;-64
2023/10/24 07:08:48;;;;;;;;;8.00;6.33;;;;;14.06;79.73;100007.59;5036060;28;46453;-66
2023/10/24 07:11:14;;;;;;;;;5.33;4.00;;;;;14.07;79.94;100015.47;5055863;28;45276;-66
2023/10/24 07:13:40;;;;;;;;;6.67;6.67;;;;;14.27;79.60;100048.38;5040875;28;45363;-66
2023/10/24 07:16:16;;;;;;;;;6.33;4.67;;;;;14.27;79.77;100049.22;5039386;28;45481;-64
2023/10/24 07:18:45;;;;;;;;;6.00;3.33;;;;;14.29;79.44;100049.19;5039227;28;46101;-64
2023/10/24 07:21:11;;;;;;;;;6.00;6.00;;;;;14.24;79.34;100041.41;5038381;28;45497;-65
2023/10/24 07:23:38;;;;;;;;;5.00;4.33;;;;;14.24;78.88;100038.78;5040819;28;45612;-68
2023/10/24 07:26:04;;;;;;;;;8.33;4.33;;;;;14.30;78.63;100045.66;5039187;28;45548;-66
2023/10/24 07:28:30;;;;;;;;;5.33;5.33;;;;;14.27;78.59;100040.47;5040055;28;45436;-66
2023/10/24 07:30:55;;;;;;;;;8.00;5.33;;;;;14.39;78.62;100048.91;5039928;28;45291;-66
2023/10/24 07:33:22;;;;;;;;;6.00;6.00;;;;;14.40;77.69;100060.31;5038468;28;46114;-66
2023/10/24 07:35:50;;;;;;;;;7.00;5.67;;;;;14.39;77.21;100058.59;5039003;28;45506;-66
2023/10/24 07:38:19;;;;;;;;;4.33;4.33;;;;;14.40;77.24;100063.84;5039807;28;45524;-67
2023/10/24 07:40:45;;;;;;;;;3.33;3.00;;;;;14.42;76.78;100048.84;5040324;28;45322;-65
2023/10/24 07:43:10;;;;;;;;;5.33;2.33;;;;;14.54;76.87;100057.38;5038509;28;45681;-65
2023/10/24 07:45:36;;;;;;;;;5.33;4.00;;;;;14.63;76.28;100062.44;5038991;28;45250;-65
2023/10/24 07:48:01;;;;;;;;;7.33;5.00;;;;;14.69;75.80;100057.00;5038405;28;45821;-66
2023/10/24 07:50:31;;;;;;;;;3.67;3.00;;;;;14.65;74.84;100036.03;5039897;28;45407;-65
2023/10/24 07:53:07;;;;;;;;;4.00;3.67;;;;;14.48;75.00;100012.72;5054953;28;45600;-66
2023/10/24 07:55:33;;;;;;;;;7.33;3.33;;;;;14.84;74.22;100068.91;5039346;28;46220;-65
2023/10/24 07:58:01;;;;;;;;;3.00;2.67;;;;;14.90;74.12;100065.25;5038693;28;45487;-67
2023/10/24 08:00:27;;;;;;;;;2.67;2.67;;;;;14.95;73.22;100056.31;5037860;28;45528;-66
2023/10/24 08:02:52;;;;;;;;;4.67;4.67;;;;;14.40;73.11;99960.22;5039803;28;45474;-67
2023/10/24 08:05:18;;;;;;;;;3.00;2.33;;;;;15.09;73.00;100066.50;5038598;28;45463;-66
2023/10/24 08:07:44;;;;;;;;;3.00;3.00;;;;;15.03;72.49;100046.41;5037157;28;45945;-65
2023/10/24 08:10:09;;;;;;;;;2.33;2.00;;;;;15.19;71.52;100061.84;5052303;28;45969;-66
2023/10/24 08:12:35;;;;;;;;;6.33;2.67;;;;;15.25;71.36;100066.94;5038571;28;45452;-67
2023/10/24 08:15:00;;;;;;;;;3.00;3.00;;;;;15.26;70.41;100074.81;5053904;28;45557;-67
2023/10/24 08:17:26;;;;;;;;;2.33;2.33;;;;;15.34;70.37;100076.38;5038614;28;45395;-67
2023/10/24 08:19:53;;;;;;;;;3.00;2.00;;;;;15.36;70.75;100062.22;5038250;28;45468;-66
2023/10/24 08:22:19;;;;;;;;;3.33;3.33;;;;;15.57;70.11;100073.94;5038927;28;45290;-66
2023/10/24 08:24:45;;;;;;;;;3.67;3.00;;;;;15.50;68.92;100051.28;5039309;28;45532;-65
2023/10/24 08:27:12;;;;;;;;;3.67;1.33;;;;;15.74;69.01;100083.19;5039468;28;45413;-66
2023/10/24 08:29:39;;;;;;;;;3.00;3.00;;;;;15.80;68.84;100077.69;5039396;28;45466;-66
2023/10/24 08:32:05;;;;;;;;;2.00;1.33;;;;;15.77;68.08;100062.81;5037877;28;45612;-67
2023/10/24 08:34:36;;;;;;;;;3.00;3.00;;;;;15.99;68.11;100076.25;5027649;28;45607;-66
2023/10/24 08:37:03;;;;;;;;;3.00;2.00;;;;;16.07;67.19;100066.28;5019745;28;46186;-67
2023/10/24 08:39:32;;;;;;;;;5.00;2.00;;;;;16.21;67.24;100080.84;5029016;28;45271;-66
2023/10/24 08:41:58;;;;;;;;;4.00;3.00;;;;;15.97;66.10;100019.97;5029443;28;45408;-65
2023/10/24 08:44:24;;;;;;;;;2.00;2.00;;;;;16.36;66.26;100080.34;5032689;28;45465;-66
2023/10/24 08:46:50;;;;;;;;;2.33;1.00;;;;;16.42;65.51;100076.63;5034299;28;45524;-66
2023/10/24 08:49:25;;;;;;;;;2.67;2.67;;;;;16.30;65.23;100047.06;5025434;28;45334;-66
2023/10/24 08:51:51;;;;;;;;;2.00;2.00;;;;;16.55;64.42;100056.81;5018129;28;45253;-66
2023/10/24 08:54:17;;;;;;;;;2.33;2.33;;;;;16.88;63.98;100096.31;5018057;28;45274;-65
2023/10/24 08:56:45;;;;;;;;;2.00;2.00;;;;;17.03;63.63;100084.31;5027561;28;45595;-66
2023/10/24 08:59:13;;;;;;;;;3.67;2.33;;;;;17.23;62.64;100084.50;5036975;28;45599;-65
2023/10/24 09:01:41;;;;;;;;;2.00;1.33;;;;;17.45;62.05;100081.06;5037243;28;45709;-66
2023/10/24 09:04:07;;;;;;;;;5.00;1.67;;;;;17.83;61.26;100090.25;5038952;28;45472;-66
2023/10/24 09:06:34;;;;;;;;;3.00;2.00;;;;;17.95;59.64;100068.56;5037909;28;46117;-66
2023/10/24 09:08:59;;;;;;;;;6.00;2.33;;;;;18.28;59.12;100068.16;5037595;28;45473;-66
2023/10/24 09:11:25;;;;;;;;;3.00;2.00;;;;;18.56;57.42;100078.50;5037706;28;45400;-66
2023/10/24 09:13:55;;;;;;;;;1.00;1.00;;;;;18.90;57.12;100085.06;5038173;28;45476;-67
2023/10/24 09:16:20;;;;;;;;;1.00;1.00;;;;;19.20;56.35;100066.09;5038518;28;45488;-67
2023/10/24 09:18:49;;;;;;;;;2.00;1.00;;;;;19.90;54.53;100062.88;5037803;28;45468;-67
2023/10/24 09:21:16;;;;;;;;;2.33;1.00;;;;;22.16;50.43;100096.56;5037419;28;45416;-65
2023/10/24 09:23:42;;;;;;;;;1.33;1.33;;;;;24.83;44.97;100081.94;5037612;28;45401;-66
2023/10/24 09:26:11;;;;;;;;;2.25;1.00;;;;;26.92;40.42;100076.81;5031006;28;45512;-67
2023/10/24 09:28:36;;;;;;;;;2.25;1.00;;;;;27.91;36.82;100006.25;5037673;28;45291;-68
2023/10/24 09:31:04;;;;;;;;;1.00;1.00;;;;;29.27;35.23;100068.50;5038674;28;45537;-66
2023/10/24 09:33:30;;;;;;;;;3.00;1.00;;;;;30.30;33.78;100072.88;5035831;28;45675;-63
2023/10/24 09:35:59;;;;;;;;;3.50;1.75;;;;;31.15;31.49;100082.97;5036898;28;46578;-65
2023/10/24 09:38:25;;;;;;;;;2.20;2.00;;;;;31.56;30.97;100040.31;5037277;28;45286;-64
2023/10/24 09:40:52;;;;;;;;;3.60;1.00;;;;;32.28;29.77;100040.47;5038456;28;45318;-62
2023/10/24 09:43:27;;;;;;;;;2.25;2.00;;;;;32.86;28.97;100017.44;5052483;28;45541;-66
2023/10/24 09:45:53;;;;;;;;;1.00;1.00;;;;;33.97;27.27;100067.28;5051846;28;47976;-63
2023/10/24 09:48:19;;;;;;;;;1.00;1.00;;;;;34.62;27.33;100060.31;5037995;28;45561;-67
2023/10/24 09:50:46;;;;;;;;;1.80;1.00;;;;;35.40;26.02;100051.56;5038103;28;45458;-66
2023/10/24 09:53:13;;;;;;;;;3.20;1.00;;;;;36.05;24.81;100055.09;5037007;28;45377;-62
2023/10/24 09:55:45;;;;;;;;;0.20;0.20;;;;;36.72;24.71;100049.03;5038294;28;45516;-64
2023/10/24 09:58:12;;;;;;;;;1.00;1.00;;;;;37.34;23.01;100058.84;5036419;28;45492;-64
2023/10/24 10:00:39;;;;;;;;;3.00;1.40;;;;;37.82;23.11;100055.75;5036809;28;45405;-64
2023/10/24 10:03:04;;;;;;;;;2.20;1.00;;;;;38.52;21.92;100065.22;5035759;28;45730;-63
2023/10/24 10:05:38;;;;;;;;;0.75;0.75;;;;;39.12;21.77;100055.63;5036385;28;45319;-63
2023/10/24 10:08:08;;;;;;;;;0.80;0.80;;;;;39.73;20.35;100060.44;5036793;28;45603;-64
2023/10/24 10:10:37;;;;;;;;;2.20;0.80;;;;;39.84;20.57;100046.19;5036658;28;45488;-63
2023/10/24 10:13:11;;;;;;;;;0.80;0.80;;;;;39.37;20.56;100052.47;5038014;28;45396;-63
2023/10/24 10:15:51;;;;;;;;;0.80;0.80;;;;;39.61;19.91;100038.25;5036448;28;45523;-63
2023/10/24 10:18:50;;;;;;;;;0.20;0.00;;;;;39.93;19.60;99989.25;5036666;28;45510;-64
2023/10/24 10:21:53;;;;;;;;;1.20;0.00;;;;;40.91;18.34;100051.88;5036553;28;45330;-64
2023/10/24 10:24:56;;;;;;;;;1.40;0.00;;;;;41.56;18.47;100064.94;5031755;28;45436;-68
2023/10/24 10:28:03;;;;;;;;;1.40;0.00;;;;;42.10;17.94;100064.50;5023625;28;47014;-65
2023/10/24 10:30:57;;;;;;;;;0.00;0.00;;;;;42.67;17.05;100052.72;5049413;28;45389;-71
2023/10/24 10:33:24;;;;;;;;;0.00;0.00;;;;;42.52;17.47;100031.03;5033939;28;45381;-68
2023/10/24 10:36:02;;;;;;;;;0.00;0.00;;;;;42.56;17.33;100049.63;5037766;28;45333;-69
2023/10/24 10:38:47;;;;;;;;;0.00;0.00;;;;;43.07;17.09;100047.75;5037219;28;46148;-69
2023/10/24 10:41:22;;;;;;;;;0.20;0.20;;;;;43.50;16.04;100054.28;5036924;28;45582;-69
2023/10/24 10:43:57;;;;;;;;;0.20;0.00;;;;;43.56;16.24;100047.84;5036142;28;45476;-66
2023/10/24 10:46:27;;;;;;;;;1.00;0.20;;;;;43.61;15.78;100017.72;5051949;28;45457;-69
2023/10/24 10:48:59;;;;;;;;;0.00;0.00;;;;;44.06;16.04;100046.84;5037253;28;46379;-66
2023/10/24 10:51:36;;;;;;;;;3.40;1.80;;;;;44.27;15.52;100051.84;5034633;28;45413;-67
2023/10/24 10:54:21;;;;;;;;;1.80;1.80;;;;;42.38;16.74;100049.53;5036749;28;45317;-64
2023/10/24 10:56:53;;;;;;;;;1.60;1.60;;;;;42.53;16.75;100039.06;5037777;28;45275;-65
2023/10/24 10:59:51;;;;;;;;;0.40;0.40;;;;;43.16;16.26;100023.47;5036846;28;45454;-65
2023/10/24 11:02:36;;;;;;;;;1.20;1.20;;;;;43.25;15.89;100029.56;5035807;28;45453;-72
2023/10/24 11:05:22;;;;;;;;;1.00;1.00;;;;;43.49;15.13;100033.31;5037274;28;45452;-66
2023/10/24 11:07:52;;;;;;;;;0.80;0.80;;;;;43.54;15.60;100038.97;5037785;28;45471;-62
2023/10/24 11:10:18;;;;;;;;;0.20;0.20;;;;;43.64;15.26;100041.22;5037078;28;46229;-64
2023/10/24 11:12:47;;;;;;;;;0.20;0.20;;;;;43.14;15.27;100039.38;5037226;28;45365;-64
2023/10/24 11:15:13;;;;;;;;;2.00;0.20;;;;;43.32;15.98;100044.13;5037347;28;45421;-63
2023/10/24 11:17:39;;;;;;;;;1.00;1.00;;;;;42.25;16.38;100020.19;5037024;28;45389;-64
2023/10/24 11:20:08;;;;;;;;;1.00;0.60;;;;;42.83;15.63;100030.16;5035561;28;47242;-65
2023/10/24 11:22:35;;;;;;;;;1.00;1.00;;;;;41.81;16.64;100043.88;5037249;28;45232;-65
2023/10/24 11:25:08;;;;;;;;;0.60;0.60;;;;;41.87;15.68;100048.53;5034923;28;45536;-63
2023/10/24 11:27:34;;;;;;;;;7.80;5.60;;;;;41.41;15.93;99966.22;5026587;28;45457;-65